createdAt,value
2023-04-18T00:01:34.650Z,102739.56
2023-04-18T00:04:03.027Z,102741.25
2023-04-18T00:06:31.868Z,102736.84
2023-04-18T00:08:59.925Z,102739.47
2023-04-18T00:11:27.909Z,102737.75
2023-04-18T00:13:57.469Z,102741.25
2023-04-18T00:16:25.637Z,102746.53
2023-04-18T00:18:55.236Z,102752.63
2023-04-18T00:21:25.596Z,102749.97
2023-04-18T00:23:53.817Z,102743.84
2023-04-18T00:26:21.903Z,102742.09
2023-04-18T00:28:50.133Z,102738.59
2023-04-18T00:31:20.450Z,102747.34
2023-04-18T00:33:49.180Z,102748.16
2023-04-18T00:36:17.206Z,102754.25
2023-04-18T00:38:46.308Z,102755.09
2023-04-18T00:41:16.501Z,102747.19
2023-04-18T00:43:44.505Z,102752.41
2023-04-18T00:46:12.697Z,102755.03
2023-04-18T00:48:42.179Z,102749.78
2023-04-18T00:51:11.216Z,102751.56
2023-04-18T00:53:39.346Z,102751.56
2023-04-18T00:56:07.772Z,102757.63
2023-04-18T00:58:35.978Z,102754.94
2023-04-18T01:01:04.107Z,102758.50
2023-04-18T01:03:52.471Z,102758.56
2023-04-18T01:06:20.985Z,102755.00
2023-04-18T01:08:49.191Z,102749.69
2023-04-18T01:11:19.406Z,102758.47
2023-04-18T01:14:00.066Z,102755.84
2023-04-18T01:16:29.661Z,102746.22
2023-04-18T01:18:59.183Z,102751.44
2023-04-18T01:21:31.353Z,102747.06
2023-04-18T01:24:04.180Z,102744.44
2023-04-18T01:26:33.692Z,102751.53
2023-04-18T01:29:04.750Z,102747.19
2023-04-18T01:31:35.371Z,102761.22
2023-04-18T01:34:05.731Z,102753.31
2023-04-18T01:36:34.329Z,102751.59
2023-04-18T01:39:04.217Z,102748.94
2023-04-18T01:41:33.636Z,102752.47
2023-04-18T01:44:02.005Z,102748.16
2023-04-18T01:46:30.400Z,102742.03
2023-04-18T01:48:58.855Z,102745.53
2023-04-18T01:51:31.421Z,102746.38
2023-04-18T01:54:00.228Z,102745.47
2023-04-18T01:56:28.295Z,102744.59
2023-04-18T01:59:00.520Z,102742.78
2023-04-18T02:01:29.419Z,102744.53
2023-04-18T02:04:00.147Z,102749.78
2023-04-18T02:06:28.400Z,102741.84
2023-04-18T02:08:56.352Z,102737.38
2023-04-18T02:11:26.432Z,102737.44
2023-04-18T02:13:54.496Z,102736.50
2023-04-18T02:16:24.105Z,102736.53
2023-04-18T02:18:52.930Z,102744.44
2023-04-18T02:21:21.979Z,102741.72
2023-04-18T02:23:51.143Z,102737.31
2023-04-18T02:26:23.140Z,102750.53
2023-04-18T02:28:52.216Z,102743.38
2023-04-18T02:31:20.318Z,102743.38
2023-04-18T02:33:49.702Z,102738.16
2023-04-18T02:36:17.708Z,102736.44
2023-04-18T02:38:46.020Z,102742.63
2023-04-18T02:41:17.483Z,102741.72
2023-04-18T02:43:45.750Z,102746.22
2023-04-18T02:46:16.142Z,102735.94
2023-04-18T02:48:46.876Z,102744.19
2023-04-18T02:51:19.937Z,102747.22
2023-04-18T02:53:48.429Z,102747.63
2023-04-18T02:56:17.968Z,102737.47
2023-04-18T02:59:04.269Z,102744.06
2023-04-18T03:01:45.921Z,102742.88
2023-04-18T03:04:17.846Z,102750.09
2023-04-18T03:06:56.125Z,102748.31
2023-04-18T03:09:24.382Z,102747.44
2023-04-18T03:11:57.821Z,102749.25
2023-04-18T03:14:28.806Z,102752.78
2023-04-18T03:16:57.465Z,102751.44
2023-04-18T03:19:31.890Z,102743.38
2023-04-18T03:22:07.388Z,102754.69
2023-04-18T03:24:40.059Z,102756.22
2023-04-18T03:27:09.422Z,102755.06
2023-04-18T03:29:40.084Z,102754.88
2023-04-18T03:32:08.766Z,102742.06
2023-04-18T03:34:36.989Z,102756.34
2023-04-18T03:37:09.330Z,102749.38
2023-04-18T03:39:43.963Z,102750.31
2023-04-18T03:42:12.327Z,102746.81
2023-04-18T03:44:41.948Z,102749.63
2023-04-18T03:47:10.349Z,102750.72
2023-04-18T03:49:41.848Z,102752.59
2023-04-18T03:52:11.592Z,102749.97
2023-04-18T03:54:39.704Z,102749.97
2023-04-18T03:57:07.840Z,102759.69
2023-04-18T03:59:37.897Z,102762.25
2023-04-18T04:02:07.828Z,102759.53
2023-04-18T04:04:36.155Z,102758.50
2023-04-18T04:07:04.637Z,102759.22
2023-04-18T04:09:34.097Z,102756.13
2023-04-18T04:12:02.423Z,102767.13
2023-04-18T04:14:31.272Z,102766.75
2023-04-18T04:16:59.509Z,102759.44
2023-04-18T04:19:27.588Z,102766.03
2023-04-18T04:22:06.786Z,102776.19
2023-04-18T04:24:38.457Z,102765.31
2023-04-18T04:27:08.216Z,102753.91
2023-04-18T04:29:39.384Z,102761.47
2023-04-18T04:32:08.618Z,102766.16
2023-04-18T04:34:41.393Z,102758.66
2023-04-18T04:37:14.096Z,102762.53
2023-04-18T04:39:56.594Z,102757.53
2023-04-18T04:42:37.688Z,102767.22
2023-04-18T04:45:13.118Z,102754.88
2023-04-18T04:47:41.324Z,102761.59
2023-04-18T04:50:14.750Z,102756.53
2023-04-18T04:52:42.990Z,102753.16
2023-04-18T04:55:12.494Z,102760.38
2023-04-18T04:57:42.071Z,102754.91
2023-04-18T05:00:42.717Z,102751.78
2023-04-18T05:03:11.813Z,102743.72
2023-04-18T05:05:40.279Z,102743.91
2023-04-18T05:08:08.366Z,102744.69
2023-04-18T05:10:37.997Z,102745.31
2023-04-18T05:13:06.189Z,102750.03
2023-04-18T05:15:34.270Z,102743.56
2023-04-18T05:18:03.468Z,102742.16
2023-04-18T05:20:32.291Z,102748.91
2023-04-18T05:23:00.389Z,102753.25
2023-04-18T05:25:29.831Z,102744.19
2023-04-18T05:28:04.521Z,102748.53
2023-04-18T05:30:33.865Z,102754.59
2023-04-18T05:33:02.038Z,102749.72
2023-04-18T05:35:30.295Z,102752.09
2023-04-18T05:37:59.546Z,102753.41
2023-04-18T05:40:28.342Z,102741.13
2023-04-18T05:42:56.440Z,102749.00
2023-04-18T05:45:25.782Z,102740.47
2023-04-18T05:47:54.608Z,102746.84
2023-04-18T05:50:23.189Z,102748.97
2023-04-18T05:52:51.272Z,102742.78
2023-04-18T05:55:19.674Z,102749.84
2023-04-18T05:57:48.052Z,102743.91
2023-04-18T06:00:17.171Z,102749.81
2023-04-18T06:02:46.903Z,102749.81
2023-04-18T06:05:15.616Z,102750.31
2023-04-18T06:07:43.992Z,102748.88
2023-04-18T06:10:13.627Z,102752.13
2023-04-18T06:12:42.076Z,102746.13
2023-04-18T06:15:11.761Z,102741.69
2023-04-18T06:17:39.872Z,102746.81
2023-04-18T06:20:11.285Z,102748.34
2023-04-18T06:22:39.453Z,102745.97
2023-04-18T06:25:10.153Z,102745.81
2023-04-18T06:27:38.960Z,102745.69
2023-04-18T06:30:08.195Z,102738.00
2023-04-18T06:32:36.327Z,102746.75
2023-04-18T06:35:04.785Z,102745.03
2023-04-18T06:37:34.402Z,102745.03
2023-04-18T06:40:02.460Z,102737.66
2023-04-18T06:42:31.234Z,102744.03
2023-04-18T06:44:59.358Z,102746.78
2023-04-18T06:47:27.560Z,102748.94
2023-04-18T06:49:55.545Z,102752.09
2023-04-18T06:52:23.819Z,102749.19
2023-04-18T06:54:53.264Z,102752.47
2023-04-18T06:57:21.633Z,102745.59
2023-04-18T06:59:49.692Z,102755.72
2023-04-18T07:02:17.878Z,102746.25
2023-04-18T07:04:46.094Z,102758.50
2023-04-18T07:07:14.225Z,102747.78
2023-04-18T07:09:42.372Z,102759.16
2023-04-18T07:12:11.881Z,102753.88
2023-04-18T07:14:40.061Z,102761.47
2023-04-18T07:17:08.263Z,102757.41
2023-04-18T07:19:36.589Z,102759.53
2023-04-18T07:22:04.638Z,102759.69
2023-04-18T07:24:32.665Z,102760.75
2023-04-18T07:27:01.487Z,102764.66
2023-04-18T07:29:31.169Z,102761.81
2023-04-18T07:31:59.641Z,102768.38
2023-04-18T07:34:29.869Z,102771.38
2023-04-18T07:36:58.130Z,102768.72
2023-04-18T07:39:26.414Z,102769.63
2023-04-18T07:41:54.813Z,102770.53
2023-04-18T07:44:25.384Z,102769.06
2023-04-18T07:46:55.885Z,102769.38
2023-04-18T07:49:23.892Z,102784.03
2023-04-18T07:51:52.050Z,102772.44
2023-04-18T07:54:20.108Z,102775.97
2023-04-18T07:56:48.265Z,102781.22
2023-04-18T07:59:16.619Z,102789.19
2023-04-18T08:01:45.095Z,102771.13
2023-04-18T08:04:15.089Z,102773.38
2023-04-18T08:06:43.324Z,102769.91
2023-04-18T08:09:12.086Z,102763.69
2023-04-18T08:11:42.074Z,102772.09
2023-04-18T08:14:10.240Z,102774.84
2023-04-18T08:16:38.444Z,102775.72
2023-04-18T08:19:06.974Z,102770.72
2023-04-18T08:21:36.546Z,102764.47
2023-04-18T08:24:04.705Z,102768.94
2023-04-18T08:26:32.866Z,102763.19
2023-04-18T08:29:00.906Z,102763.38
2023-04-18T08:31:31.683Z,102767.16
2023-04-18T08:33:59.808Z,102783.56
2023-04-18T08:36:28.044Z,102767.19
2023-04-18T08:38:58.117Z,102762.72
2023-04-18T08:41:28.746Z,102766.00
2023-04-18T08:43:57.216Z,102771.94
2023-04-18T08:46:25.575Z,102757.22
2023-04-18T08:48:53.819Z,102766.16
2023-04-18T08:51:21.920Z,102766.88
2023-04-18T08:53:50.721Z,102767.38
2023-04-18T08:56:22.477Z,102767.38
2023-04-18T08:58:50.833Z,102766.69
2023-04-18T09:01:18.955Z,102769.66
2023-04-18T09:03:47.142Z,102771.47
2023-04-18T09:06:18.993Z,102778.13
2023-04-18T09:08:57.544Z,102766.34
2023-04-18T09:11:28.982Z,102771.75
2023-04-18T09:13:59.964Z,102779.50
2023-04-18T09:16:29.344Z,102776.47
2023-04-18T09:19:11.985Z,102768.78
2023-04-18T09:21:41.849Z,102770.84
2023-04-18T09:24:23.980Z,102783.09
2023-04-18T09:26:55.881Z,102783.38
2023-04-18T09:29:42.205Z,102785.38
2023-04-18T09:32:11.319Z,102787.84
2023-04-18T09:34:43.137Z,102777.59
2023-04-18T09:37:12.470Z,102781.25
2023-04-18T09:39:42.438Z,102779.25
2023-04-18T09:42:12.660Z,102788.78
2023-04-18T09:44:59.616Z,102790.44
2023-04-18T09:47:29.017Z,102785.34
2023-04-18T09:49:57.626Z,102791.81
2023-04-18T09:52:26.837Z,102793.63
2023-04-18T09:55:00.832Z,102795.34
2023-04-18T09:57:32.456Z,102788.88
2023-04-18T10:00:08.745Z,102795.03
2023-04-18T10:02:48.599Z,102796.59
2023-04-18T10:05:19.530Z,102798.19
2023-04-18T10:07:50.648Z,102798.69
2023-04-18T10:10:19.213Z,102798.34
2023-04-18T10:12:51.750Z,102801.16
2023-04-18T10:15:22.162Z,102798.59
2023-04-18T10:18:04.410Z,102804.13
2023-04-18T10:20:35.388Z,102805.84
2023-04-18T10:23:37.610Z,102810.66
2023-04-18T10:26:09.874Z,102809.47
2023-04-18T10:28:54.674Z,102809.00
2023-04-18T10:31:24.496Z,102818.25
2023-04-18T10:36:28.452Z,102816.72
2023-04-18T10:39:02.942Z,102816.97
2023-04-18T10:41:33.450Z,102826.72
2023-04-18T10:44:32.823Z,102810.78
2023-04-18T10:47:31.621Z,102824.13
2023-04-18T10:50:06.153Z,102822.34
2023-04-18T10:52:35.156Z,102824.19
2023-04-18T10:55:14.746Z,102827.97
2023-04-18T10:57:47.053Z,102816.47
2023-04-18T11:00:18.634Z,102823.56
2023-04-18T11:02:53.903Z,102832.44
2023-04-18T11:05:25.040Z,102818.28
2023-04-18T11:07:53.420Z,102829.03
2023-04-18T11:10:23.772Z,102820.16
2023-04-18T11:12:52.560Z,102832.66
2023-04-18T11:15:23.870Z,102822.00
2023-04-18T11:18:00.015Z,102828.25
2023-04-18T11:20:28.630Z,102829.22
2023-04-18T11:22:57.664Z,102830.13
2023-04-18T11:25:27.814Z,102831.91
2023-04-18T11:27:59.203Z,102831.06
2023-04-18T11:30:31.385Z,102827.50
2023-04-18T11:32:59.542Z,102847.91
2023-04-18T11:35:28.017Z,102832.88
2023-04-18T11:37:56.519Z,102832.88
2023-04-18T11:40:24.653Z,102835.53
2023-04-18T11:42:55.763Z,102836.38
2023-04-18T11:45:23.973Z,102844.41
2023-04-18T11:47:57.479Z,102846.22
2023-04-18T11:50:28.025Z,102838.22
2023-04-18T11:52:57.819Z,102827.59
2023-04-18T11:55:27.372Z,102842.69
2023-04-18T11:57:56.589Z,102839.19
2023-04-18T12:00:35.432Z,102840.09
2023-04-18T12:03:06.896Z,102846.34
2023-04-18T12:05:37.120Z,102849.91
2023-04-18T12:08:13.125Z,102839.25
2023-04-18T12:10:47.827Z,102841.03
2023-04-18T12:13:16.143Z,102853.47
2023-04-18T12:15:45.665Z,102845.50
2023-04-18T12:18:18.279Z,102849.09
2023-04-18T12:20:50.285Z,102849.97
2023-04-18T12:23:32.869Z,102850.88
2023-04-18T12:26:02.369Z,102851.78
2023-04-18T12:28:31.039Z,102849.09
2023-04-18T12:30:59.352Z,102849.13
2023-04-18T12:33:29.004Z,102843.78
2023-04-18T12:35:57.434Z,102853.53
2023-04-18T12:38:25.708Z,102851.78
2023-04-18T12:40:53.953Z,102842.91
2023-04-18T12:43:22.016Z,102854.44
2023-04-18T12:45:51.522Z,102850.00
2023-04-18T12:48:19.664Z,102858.84
2023-04-18T12:50:49.145Z,102865.94
2023-04-18T12:53:17.416Z,102859.72
2023-04-18T12:55:45.886Z,102864.16
2023-04-18T12:58:18.579Z,102854.38
2023-04-18T13:00:46.988Z,102850.84
2023-04-18T13:03:15.589Z,102865.03
2023-04-18T13:05:43.887Z,102873.06
2023-04-18T13:08:17.627Z,102860.66
2023-04-18T13:10:47.639Z,102865.97
2023-04-18T13:13:16.728Z,102874.84
2023-04-18T13:15:44.859Z,102868.69
2023-04-18T13:18:13.059Z,102873.13
2023-04-18T13:20:41.144Z,102884.63
2023-04-18T13:23:09.183Z,102874.88
2023-04-18T13:25:38.563Z,102873.13
2023-04-18T13:28:06.798Z,102874.00
2023-04-18T13:30:35.848Z,102885.53
2023-04-18T13:33:05.274Z,102866.94
2023-04-18T13:35:33.419Z,102882.88
2023-04-18T13:38:01.475Z,102876.69
2023-04-18T13:40:29.509Z,102870.47
2023-04-18T13:42:58.930Z,102880.22
2023-04-18T13:45:27.502Z,102880.22
2023-04-18T13:47:55.605Z,102881.09
2023-04-18T13:50:24.463Z,102883.78
2023-04-18T13:52:54.659Z,102888.19
2023-04-18T13:55:22.945Z,102889.06
2023-04-18T13:57:51.102Z,102883.75
2023-04-18T14:00:21.650Z,102882.88
2023-04-18T14:02:51.088Z,102890.84
2023-04-18T14:05:19.477Z,102891.75
2023-04-18T14:07:48.607Z,102882.91
2023-04-18T14:10:16.668Z,102894.34
2023-04-18T14:12:44.798Z,102880.16
2023-04-18T14:15:13.146Z,102889.94
2023-04-18T14:17:45.313Z,102897.00
2023-04-18T14:20:15.644Z,102881.06
2023-04-18T14:22:43.918Z,102898.78
2023-04-18T14:25:12.015Z,102886.38
2023-04-18T14:27:40.401Z,102896.09
2023-04-18T14:30:10.114Z,102898.75
2023-04-18T14:32:38.270Z,102889.03
2023-04-18T14:35:09.324Z,102896.13
2023-04-18T14:37:40.822Z,102894.34
2023-04-18T14:40:11.320Z,102906.75
2023-04-18T14:42:39.493Z,102899.66
2023-04-18T14:45:08.794Z,102895.22
2023-04-18T14:47:39.102Z,102892.56
2023-04-18T14:50:11.855Z,102904.09
2023-04-18T14:52:40.434Z,102897.84
2023-04-18T14:55:09.870Z,102905.84
2023-04-18T14:57:39.202Z,102904.94
2023-04-18T15:00:11.425Z,102908.47
2023-04-18T15:02:40.044Z,102904.94
2023-04-18T15:05:11.123Z,102912.84
2023-04-18T15:07:40.793Z,102910.19
2023-04-18T15:10:12.655Z,102907.53
2023-04-18T15:12:41.666Z,102908.38
2023-04-18T15:15:10.497Z,102911.91
2023-04-18T15:17:38.707Z,102919.88
2023-04-18T15:20:09.504Z,102917.22
2023-04-18T15:22:37.784Z,102919.00
2023-04-18T15:25:06.646Z,102927.81
2023-04-18T15:27:34.880Z,102919.88
2023-04-18T15:30:03.836Z,102920.72
2023-04-18T15:32:32.985Z,102929.56
2023-04-18T15:35:01.084Z,102919.81
2023-04-18T15:37:30.539Z,102933.06
2023-04-18T15:39:58.789Z,102932.16
2023-04-18T15:42:28.035Z,102921.53
2023-04-18T15:44:56.393Z,102917.97
2023-04-18T15:47:24.484Z,102931.22
2023-04-18T15:49:52.575Z,102930.34
2023-04-18T15:52:20.756Z,102923.25
2023-04-18T15:54:53.038Z,102931.19
2023-04-18T15:57:21.974Z,102923.22
2023-04-18T15:59:50.123Z,102922.34
2023-04-18T16:02:18.250Z,102925.84
2023-04-18T16:04:46.708Z,102927.63
2023-04-18T16:07:16.012Z,102928.50
2023-04-18T16:09:44.163Z,102924.06
2023-04-18T16:12:13.640Z,102932.91
2023-04-18T16:14:41.782Z,102925.81
2023-04-18T16:17:09.946Z,102933.75
2023-04-18T16:19:40.935Z,102924.03
2023-04-18T16:22:09.122Z,102932.00
2023-04-18T16:24:37.184Z,102934.66
2023-04-18T16:27:05.747Z,102932.84
2023-04-18T16:29:35.501Z,102934.63
2023-04-18T16:32:03.789Z,102934.63
2023-04-18T16:34:32.073Z,102937.25
2023-04-18T16:37:00.188Z,102926.59
2023-04-18T16:39:31.505Z,102931.00
2023-04-18T16:41:59.733Z,102934.50
2023-04-18T16:44:27.941Z,102934.50
2023-04-18T16:46:57.424Z,102944.25
2023-04-18T16:49:26.159Z,102941.56
2023-04-18T16:51:54.212Z,102943.31
2023-04-18T16:54:22.356Z,102945.97
2023-04-18T16:56:50.442Z,102943.22
2023-04-18T16:59:18.570Z,102941.38
2023-04-18T17:01:46.764Z,102945.78
2023-04-18T17:04:17.228Z,102940.47
2023-04-18T17:06:45.574Z,102931.59
2023-04-18T17:09:14.826Z,102943.06
2023-04-18T17:11:43.110Z,102944.84
2023-04-18T17:14:11.564Z,102946.56
2023-04-18T17:16:41.695Z,102943.88
2023-04-18T17:19:11.292Z,102948.25
2023-04-18T17:21:40.906Z,102945.59
2023-04-18T17:24:09.431Z,102948.19
2023-04-18T17:26:39.527Z,102950.78
2023-04-18T17:29:08.798Z,102957.84
2023-04-18T17:31:37.461Z,102954.25
2023-04-18T17:34:06.101Z,102956.03
2023-04-18T17:36:34.385Z,102957.75
2023-04-18T17:39:06.459Z,102948.88
2023-04-18T17:41:37.699Z,102970.00
2023-04-18T17:44:07.887Z,102962.88
2023-04-18T17:46:36.363Z,102969.06
2023-04-18T17:49:04.705Z,102966.38
2023-04-18T17:51:32.991Z,102965.44
2023-04-18T17:54:00.997Z,102965.41
2023-04-18T17:56:31.539Z,102962.72
2023-04-18T17:58:59.650Z,102965.31
2023-04-18T18:01:30.315Z,102967.09
2023-04-18T18:03:58.905Z,102967.97
2023-04-18T18:06:27.870Z,102959.09
2023-04-18T18:08:56.061Z,102960.78
2023-04-18T18:11:24.225Z,102964.25
2023-04-18T18:13:55.624Z,102962.47
2023-04-18T18:16:24.120Z,102965.06
2023-04-18T18:18:52.591Z,102966.78
2023-04-18T18:21:20.826Z,102964.13
2023-04-18T18:23:48.908Z,102963.19
2023-04-18T18:26:16.954Z,102960.47
2023-04-18T18:28:45.024Z,102966.59
2023-04-18T18:31:14.524Z,102969.22
2023-04-18T18:33:42.579Z,102970.03
2023-04-18T18:36:10.575Z,102969.13
2023-04-18T18:38:38.683Z,102959.31
2023-04-18T18:41:07.143Z,102983.19
2023-04-18T18:43:35.517Z,102972.53
2023-04-18T18:46:03.533Z,102980.44
2023-04-18T18:48:36.934Z,102972.41
2023-04-18T18:51:05.198Z,102967.94
2023-04-18T18:53:33.207Z,102970.59
2023-04-18T18:56:01.678Z,102975.81
2023-04-18T18:58:29.726Z,102971.34
2023-04-18T19:00:59.913Z,102971.34
2023-04-18T19:03:28.225Z,102974.81
2023-04-18T19:05:57.713Z,102971.22
2023-04-18T19:08:25.865Z,102980.84
2023-04-18T19:10:54.005Z,102979.03
2023-04-18T19:13:23.895Z,102978.97
2023-04-18T19:15:52.193Z,102975.41
2023-04-18T19:18:20.521Z,102974.53
2023-04-18T19:20:49.841Z,102977.97
2023-04-18T19:23:19.518Z,102981.50
2023-04-18T19:25:47.776Z,102973.50
2023-04-18T19:28:18.095Z,102974.31
2023-04-18T19:30:47.259Z,102979.53
2023-04-18T19:33:15.443Z,102973.31
2023-04-18T19:35:44.099Z,102974.13
2023-04-18T19:38:12.145Z,102971.50
2023-04-18T19:40:41.721Z,102976.72
2023-04-18T19:43:09.849Z,102975.84
2023-04-18T19:45:38.051Z,102980.16
2023-04-18T19:48:06.814Z,102979.25
2023-04-18T19:50:34.886Z,102984.50
2023-04-18T19:53:03.041Z,102980.13
2023-04-18T19:55:31.594Z,102989.72
2023-04-18T19:58:01.104Z,102972.94
2023-04-18T20:00:29.404Z,102987.09
2023-04-18T20:02:58.673Z,102985.28
2023-04-18T20:05:27.003Z,102987.94
2023-04-18T20:07:55.052Z,102990.50
2023-04-18T20:10:23.215Z,102991.44
2023-04-18T20:12:51.519Z,102990.50
2023-04-18T20:15:30.756Z,102986.94
2023-04-18T20:17:59.642Z,102989.53
2023-04-18T20:20:28.034Z,102999.25
2023-04-18T20:22:56.182Z,103008.88
2023-04-18T20:25:24.439Z,102999.13
2023-04-18T20:27:52.653Z,103012.47
2023-04-18T20:30:23.346Z,103007.13
2023-04-18T20:32:51.628Z,103017.63
2023-04-18T20:35:20.514Z,103008.78
2023-04-18T20:37:49.848Z,103024.63
2023-04-18T20:40:18.645Z,103017.59
2023-04-18T20:42:46.827Z,103017.56
2023-04-18T20:45:14.947Z,103023.75
2023-04-18T20:47:44.480Z,103021.00
2023-04-18T20:50:14.048Z,103026.13
2023-04-18T20:52:42.871Z,103027.03
2023-04-18T20:55:11.285Z,103037.50
2023-04-18T20:57:39.292Z,103034.78
2023-04-18T21:00:10.547Z,103046.25
2023-04-18T21:02:39.084Z,103042.66
2023-04-18T21:05:09.346Z,103040.81
2023-04-18T21:07:37.774Z,103046.84
2023-04-18T21:10:06.338Z,103041.53
2023-04-18T21:12:34.613Z,103052.00
2023-04-18T21:15:02.628Z,103043.16
2023-04-18T21:17:31.448Z,103044.84
2023-04-18T21:19:59.555Z,103045.66
2023-04-18T21:22:28.950Z,103049.97
2023-04-18T21:24:56.974Z,103051.69
2023-04-18T21:27:25.115Z,103044.59
2023-04-18T21:29:53.075Z,103048.94
2023-04-18T21:32:21.089Z,103051.47
2023-04-18T21:34:49.069Z,103055.06
2023-04-18T21:37:16.992Z,103058.53
2023-04-18T21:39:46.479Z,103050.50
2023-04-18T21:42:14.454Z,103061.09
2023-04-18T21:44:42.442Z,103054.84
2023-04-18T21:47:10.378Z,103059.19
2023-04-18T21:49:38.346Z,103053.91
2023-04-18T21:52:07.636Z,103053.84
2023-04-18T21:54:35.648Z,103054.69
2023-04-18T21:57:05.967Z,103060.88
2023-04-18T21:59:33.945Z,103062.56
2023-04-18T22:02:02.168Z,103059.03
2023-04-18T22:04:30.306Z,103061.72
2023-04-18T22:06:58.583Z,103069.69
2023-04-18T22:09:26.553Z,103061.75
2023-04-18T22:11:56.891Z,103073.13
2023-04-18T22:14:28.183Z,103065.19
2023-04-18T22:16:56.293Z,103063.41
2023-04-18T22:19:24.785Z,103067.72
2023-04-18T22:21:52.808Z,103072.03
2023-04-18T22:24:21.992Z,103075.53
2023-04-18T22:26:50.092Z,103078.97
2023-04-18T22:29:18.033Z,103077.97
2023-04-18T22:31:47.512Z,103077.03
2023-04-18T22:34:15.846Z,103080.47
2023-04-18T22:36:45.568Z,103071.56
2023-04-18T22:39:13.614Z,103085.50
2023-04-18T22:41:41.574Z,103076.63
2023-04-18T22:44:09.942Z,103079.13
2023-04-18T22:46:39.286Z,103073.66
2023-04-18T22:49:08.692Z,103077.03
2023-04-18T22:51:38.211Z,103082.25
2023-04-18T22:54:06.658Z,103078.56
2023-04-18T22:56:34.570Z,103091.47
2023-04-18T22:59:02.551Z,103082.63
2023-04-18T23:01:30.736Z,103080.66
2023-04-18T23:03:59.104Z,103088.41
2023-04-18T23:06:30.009Z,103087.47
2023-04-18T23:08:58.067Z,103098.84
2023-04-18T23:11:26.324Z,103085.44
2023-04-18T23:13:54.276Z,103078.38
2023-04-18T23:16:23.063Z,103081.66
2023-04-18T23:18:52.146Z,103088.72
2023-04-18T23:21:20.114Z,103076.38
2023-04-18T23:23:49.529Z,103082.38
2023-04-18T23:26:17.590Z,103087.59
2023-04-18T23:28:45.594Z,103083.03
2023-04-18T23:31:13.640Z,103086.41
2023-04-18T23:33:41.642Z,103085.44
2023-04-18T23:36:10.027Z,103083.63
2023-04-18T23:38:38.475Z,103081.81
2023-04-18T23:41:08.050Z,103087.84
2023-04-18T23:43:36.846Z,103081.66
2023-04-18T23:46:04.979Z,103083.25
2023-04-18T23:48:33.112Z,103092.00
2023-04-18T23:51:02.417Z,103082.25
2023-04-18T23:53:30.677Z,103084.88
2023-04-18T23:55:58.606Z,103076.88
2023-04-18T23:58:28.076Z,103085.53
